Time;durP1;ratioP1;P1;durP2;ratioP2;P2;SDS_P1;SDS_P2;PMS_P1;PMS_P2;Temp;Humidity;BMP_temperature;BMP_pressure;BME280_temperature;BME280_humidity;BME280_pressure;Samples;Min_cycle;Max_cycle;Signal;HPM_P1;HPM_P2
2021/09/29 00:00:18;;;;;;;20.90;14.90;;;;;;;;;;6238878;23;20104;-74
2021/09/29 00:02:44;;;;;;;19.65;14.77;;;;;;;;;;6237281;23;20425;-75
2021/09/29 00:05:11;;;;;;;27.48;15.02;;;;;;;;;;6238734;23;20504;-75
2021/09/29 00:07:37;;;;;;;18.90;14.93;;;;;;;;;;6239184;23;20004;-79
2021/09/29 00:10:04;;;;;;;21.63;14.93;;;;;;;;;;6238752;23;20087;-78
2021/09/29 00:12:30;;;;;;;21.35;14.63;;;;;;;;;;6239189;23;20369;-74
2021/09/29 00:14:56;;;;;;;20.10;14.25;;;;;;;;;;6236676;23;20004;-76
2021/09/29 00:17:22;;;;;;;17.92;15.52;;;;;;;;;;6238861;23;20020;-74
2021/09/29 00:19:49;;;;;;;23.48;15.43;;;;;;;;;;6238958;23;20004;-74
2021/09/29 00:22:15;;;;;;;20.77;14.55;;;;;;;;;;6238928;23;20008;-75
2021/09/29 00:24:41;;;;;;;17.17;14.70;;;;;;;;;;6238564;23;20008;-75
2021/09/29 00:27:07;;;;;;;19.42;14.85;;;;;;;;;;6236769;23;20075;-76
2021/09/29 00:29:34;;;;;;;18.48;14.35;;;;;;;;;;6238801;23;20486;-78
2021/09/29 00:32:04;;;;;;;21.20;14.90;;;;;;;;;;6238267;23;20013;-74
2021/09/29 00:34:39;;;;;;;22.85;16.25;;;;;;;;;;6238869;23;20075;-77
2021/09/29 00:37:06;;;;;;;19.63;14.88;;;;;;;;;;6238788;23;20035;-75
2021/09/29 00:39:32;;;;;;;20.67;15.35;;;;;;;;;;6237286;23;20028;-74
2021/09/29 00:41:58;;;;;;;21.58;15.48;;;;;;;;;;6211589;23;20329;-79
2021/09/29 00:44:24;;;;;;;18.98;15.38;;;;;;;;;;6238960;23;20137;-74
2021/09/29 00:46:51;;;;;;;22.08;15.63;;;;;;;;;;6231626;23;20000;-75
2021/09/29 00:49:17;;;;;;;20.17;14.77;;;;;;;;;;6236792;23;20077;-75
2021/09/29 00:51:43;;;;;;;22.90;15.77;;;;;;;;;;6238717;23;20008;-74
2021/09/29 00:54:10;;;;;;;19.80;14.73;;;;;;;;;;6238495;23;20004;-75
2021/09/29 00:56:36;;;;;;;22.15;15.95;;;;;;;;;;6238889;22;20405;-75
2021/09/29 00:59:03;;;;;;;19.70;15.93;;;;;;;;;;6238429;23;20004;-78
2021/09/29 01:01:30;;;;;;;19.08;14.88;;;;;;;;;;6238227;23;19996;-79
2021/09/29 01:03:56;;;;;;;19.00;15.05;;;;;;;;;;6236571;23;20019;-74
2021/09/29 01:06:25;;;;;;;24.02;16.45;;;;;;;;;;6238787;23;20083;-76
2021/09/29 01:08:53;;;;;;;21.40;15.15;;;;;;;;;;6238738;23;20008;-77
2021/09/29 01:11:33;;;;;;;22.65;16.10;;;;;;;;;;6238359;23;20071;-73
2021/09/29 01:14:04;;;;;;;20.02;14.98;;;;;;;;;;6236863;23;20000;-74
2021/09/29 01:16:32;;;;;;;21.90;16.05;;;;;;;;;;6238273;23;20433;-77
2021/09/29 01:18:59;;;;;;;19.15;15.27;;;;;;;;;;6238287;23;20732;-77
2021/09/29 01:21:28;;;;;;;21.65;15.52;;;;;;;;;;6233219;23;20005;-74
2021/09/29 01:24:01;;;;;;;22.23;15.82;;;;;;;;;;6232131;23;20514;-79
2021/09/29 01:26:28;;;;;;;20.08;15.25;;;;;;;;;;6231157;23;20011;-77
2021/09/29 01:29:00;;;;;;;21.92;15.60;;;;;;;;;;6232468;23;20039;-75
2021/09/29 01:31:27;;;;;;;24.20;16.10;;;;;;;;;;6230232;23;20508;-77
2021/09/29 01:33:54;;;;;;;21.52;15.85;;;;;;;;;;6230418;23;20277;-75
2021/09/29 01:36:20;;;;;;;19.25;15.93;;;;;;;;;;6232341;23;20070;-79
2021/09/29 01:38:50;;;;;;;25.10;15.88;;;;;;;;;;6232695;23;20015;-78
2021/09/29 01:41:16;;;;;;;21.33;16.73;;;;;;;;;;6232245;23;20004;-77
2021/09/29 01:43:42;;;;;;;22.90;16.80;;;;;;;;;;6230880;23;20374;-78
2021/09/29 01:46:09;;;;;;;21.30;15.13;;;;;;;;;;6233230;23;20321;-75
2021/09/29 01:48:41;;;;;;;20.65;15.48;;;;;;;;;;6230904;23;20050;-78
2021/09/29 01:51:08;;;;;;;24.40;17.05;;;;;;;;;;6232450;23;20560;-77
2021/09/29 01:53:34;;;;;;;25.90;16.27;;;;;;;;;;6205247;23;20038;-76
2021/09/29 01:56:01;;;;;;;22.20;15.73;;;;;;;;;;6232047;22;20027;-75
2021/09/29 01:58:30;;;;;;;20.27;15.40;;;;;;;;;;6232545;23;20022;-79
2021/09/29 02:00:56;;;;;;;19.80;15.05;;;;;;;;;;6232207;23;20082;-76
2021/09/29 02:03:22;;;;;;;21.77;15.85;;;;;;;;;;6230684;23;20026;-75
2021/09/29 02:05:50;;;;;;;20.45;15.48;;;;;;;;;;6232577;23;20135;-76
2021/09/29 02:08:17;;;;;;;23.13;16.02;;;;;;;;;;6232057;23;20724;-79
2021/09/29 02:10:43;;;;;;;19.35;14.95;;;;;;;;;;6232451;23;20118;-75
2021/09/29 02:13:09;;;;;;;18.95;14.88;;;;;;;;;;6232324;23;20000;-75
2021/09/29 02:15:35;;;;;;;20.30;15.00;;;;;;;;;;6232516;23;20024;-75
2021/09/29 02:18:02;;;;;;;22.23;14.95;;;;;;;;;;6230250;23;20079;-79
2021/09/29 02:20:28;;;;;;;21.38;15.27;;;;;;;;;;6231104;23;20016;-76
2021/09/29 02:22:54;;;;;;;21.10;15.02;;;;;;;;;;6232785;23;20004;-76
2021/09/29 02:25:20;;;;;;;21.05;15.75;;;;;;;;;;6230608;23;20075;-79
2021/09/29 02:27:46;;;;;;;19.35;15.15;;;;;;;;;;6232536;23;20000;-75
2021/09/29 02:30:13;;;;;;;23.73;15.50;;;;;;;;;;6230141;23;20031;-75
2021/09/29 02:32:40;;;;;;;18.48;14.82;;;;;;;;;;6231612;23;20044;-78
2021/09/29 02:35:07;;;;;;;21.85;15.55;;;;;;;;;;6233871;23;20051;-75
2021/09/29 02:37:33;;;;;;;19.77;15.88;;;;;;;;;;6233841;23;20083;-76
2021/09/29 02:39:59;;;;;;;20.20;15.57;;;;;;;;;;6232230;23;20014;-78
2021/09/29 02:42:26;;;;;;;21.25;15.68;;;;;;;;;;6233914;23;20108;-78
2021/09/29 02:44:52;;;;;;;19.38;16.15;;;;;;;;;;6233696;23;20000;-76
2021/09/29 02:47:18;;;;;;;23.65;15.93;;;;;;;;;;6233007;23;20435;-74
2021/09/29 02:49:44;;;;;;;21.52;15.75;;;;;;;;;;6233961;23;20008;-76
2021/09/29 02:52:10;;;;;;;21.08;15.02;;;;;;;;;;6233918;23;20429;-78
2021/09/29 02:54:37;;;;;;;21.27;16.35;;;;;;;;;;6233722;23;20008;-75
2021/09/29 02:57:03;;;;;;;18.48;14.50;;;;;;;;;;6231862;22;20562;-75
2021/09/29 02:59:29;;;;;;;20.65;15.75;;;;;;;;;;6233807;23;20461;-76
2021/09/29 03:01:55;;;;;;;17.80;15.90;;;;;;;;;;6232639;23;20099;-75
2021/09/29 03:04:21;;;;;;;20.35;15.50;;;;;;;;;;6229066;23;20044;-76
2021/09/29 03:06:48;;;;;;;19.83;15.52;;;;;;;;;;6231675;23;20445;-78
2021/09/29 03:09:15;;;;;;;19.98;16.17;;;;;;;;;;6230950;23;20468;-78
2021/09/29 03:11:42;;;;;;;22.08;16.45;;;;;;;;;;6231439;23;20004;-74
2021/09/29 03:14:08;;;;;;;22.55;15.35;;;;;;;;;;6231366;23;20070;-80
2021/09/29 03:16:34;;;;;;;20.20;15.23;;;;;;;;;;6230946;23;20034;-75
2021/09/29 03:19:00;;;;;;;20.05;16.17;;;;;;;;;;6228950;23;20777;-75
2021/09/29 03:21:27;;;;;;;21.65;16.83;;;;;;;;;;6231168;23;20440;-75
2021/09/29 03:23:53;;;;;;;22.95;15.45;;;;;;;;;;6229629;23;20641;-76
2021/09/29 03:26:19;;;;;;;23.13;16.65;;;;;;;;;;6233618;23;20023;-78
2021/09/29 03:28:45;;;;;;;24.23;16.50;;;;;;;;;;6232026;23;20103;-74
2021/09/29 03:31:12;;;;;;;21.42;15.73;;;;;;;;;;6233576;23;20012;-76
2021/09/29 03:33:39;;;;;;;20.45;15.25;;;;;;;;;;6231236;23;20484;-74
2021/09/29 03:36:05;;;;;;;21.20;14.70;;;;;;;;;;6233349;23;20000;-75
2021/09/29 03:38:31;;;;;;;19.52;15.52;;;;;;;;;;6233118;23;20000;-75
2021/09/29 03:40:57;;;;;;;19.55;15.40;;;;;;;;;;6231644;23;20019;-78
2021/09/29 03:43:24;;;;;;;23.73;16.95;;;;;;;;;;6233142;23;20442;-75
2021/09/29 03:45:50;;;;;;;19.55;15.45;;;;;;;;;;6233036;23;20560;-75
2021/09/29 03:48:16;;;;;;;22.10;15.30;;;;;;;;;;6230597;23;20011;-75
2021/09/29 03:50:42;;;;;;;21.70;15.70;;;;;;;;;;6230576;23;20004;-74
2021/09/29 03:53:08;;;;;;;19.25;15.68;;;;;;;;;;6231100;23;20008;-79
2021/09/29 03:55:35;;;;;;;22.63;15.88;;;;;;;;;;6226459;22;20027;-76
2021/09/29 03:58:01;;;;;;;20.25;15.55;;;;;;;;;;6231226;23;20495;-78
2021/09/29 04:00:28;;;;;;;18.63;15.32;;;;;;;;;;6230423;23;20000;-77
2021/09/29 04:02:54;;;;;;;20.35;15.40;;;;;;;;;;6230453;23;20009;-75
2021/09/29 04:05:21;;;;;;;23.15;15.63;;;;;;;;;;6228884;23;20075;-76
2021/09/29 04:07:47;;;;;;;23.02;16.13;;;;;;;;;;6230644;23;20000;-75
2021/09/29 04:10:13;;;;;;;21.05;15.43;;;;;;;;;;6229442;23;20004;-78
2021/09/29 04:12:42;;;;;;;22.33;15.70;;;;;;;;;;6229989;23;20009;-79
2021/09/29 04:15:09;;;;;;;20.30;15.75;;;;;;;;;;6229672;23;20030;-76
2021/09/29 04:17:36;;;;;;;26.58;16.35;;;;;;;;;;6228838;23;20566;-76
2021/09/29 04:20:03;;;;;;;17.52;15.45;;;;;;;;;;6229857;23;20011;-80
2021/09/29 04:22:29;;;;;;;26.27;17.02;;;;;;;;;;6230043;23;20752;-77
2021/09/29 04:24:56;;;;;;;20.10;16.08;;;;;;;;;;6229911;23;20004;-76
2021/09/29 04:27:22;;;;;;;24.52;16.95;;;;;;;;;;6230087;23;20087;-76
2021/09/29 04:29:48;;;;;;;19.42;15.38;;;;;;;;;;6228438;23;20470;-74
2021/09/29 04:32:14;;;;;;;18.02;15.13;;;;;;;;;;6229551;23;20016;-76
2021/09/29 04:34:41;;;;;;;20.00;16.70;;;;;;;;;;6230972;23;20480;-75
2021/09/29 04:37:07;;;;;;;20.05;15.88;;;;;;;;;;6229903;23;20000;-78
2021/09/29 04:39:33;;;;;;;20.52;16.55;;;;;;;;;;6228316;23;20047;-75
2021/09/29 04:42:00;;;;;;;22.83;16.80;;;;;;;;;;6229671;23;20533;-79
2021/09/29 04:44:26;;;;;;;20.40;16.38;;;;;;;;;;6229534;23;20092;-77
2021/09/29 04:46:52;;;;;;;20.75;16.05;;;;;;;;;;6227620;23;20008;-79
2021/09/29 04:49:18;;;;;;;23.83;17.13;;;;;;;;;;6230037;23;20090;-77
2021/09/29 04:51:44;;;;;;;24.10;16.75;;;;;;;;;;6230006;23;20061;-76
2021/09/29 04:54:10;;;;;;;21.95;16.98;;;;;;;;;;6229382;23;20634;-76
2021/09/29 04:56:37;;;;;;;21.52;17.48;;;;;;;;;;6227182;22;20098;-78
2021/09/29 04:59:03;;;;;;;23.75;17.85;;;;;;;;;;6229973;23;20008;-71
2021/09/29 05:01:30;;;;;;;23.08;17.73;;;;;;;;;;6228208;23;20000;-70
2021/09/29 05:03:56;;;;;;;29.17;17.85;;;;;;;;;;6229662;23;20066;-77
2021/09/29 05:06:23;;;;;;;27.30;17.80;;;;;;;;;;6229649;23;20030;-74
2021/09/29 05:08:51;;;;;;;23.77;17.65;;;;;;;;;;6229605;23;20047;-72
2021/09/29 05:11:34;;;;;;;22.23;17.83;;;;;;;;;;6227891;23;20185;-75
2021/09/29 05:14:00;;;;;;;20.63;17.45;;;;;;;;;;6230220;23;20004;-71
2021/09/29 05:16:27;;;;;;;22.73;17.73;;;;;;;;;;6230191;23;20488;-71
2021/09/29 05:18:53;;;;;;;23.88;18.67;;;;;;;;;;6230129;23;20086;-75
2021/09/29 05:21:19;;;;;;;25.10;18.30;;;;;;;;;;6230440;23;20078;-71
2021/09/29 05:23:45;;;;;;;30.33;19.50;;;;;;;;;;6227321;23;20078;-70
2021/09/29 05:26:12;;;;;;;27.45;18.85;;;;;;;;;;6229841;23;20004;-73
2021/09/29 05:28:40;;;;;;;26.27;18.77;;;;;;;;;;6229785;23;20031;-77
2021/09/29 05:31:07;;;;;;;26.35;19.00;;;;;;;;;;6231456;23;20447;-77
2021/09/29 05:33:33;;;;;;;22.42;18.48;;;;;;;;;;6229973;23;20095;-70
2021/09/29 05:35:59;;;;;;;27.42;18.92;;;;;;;;;;6229314;23;20023;-70
2021/09/29 05:38:26;;;;;;;22.15;18.88;;;;;;;;;;6231140;23;20008;-71
2021/09/29 05:40:52;;;;;;;24.98;19.75;;;;;;;;;;6232126;23;20065;-71
2021/09/29 05:43:18;;;;;;;21.48;18.70;;;;;;;;;;6232006;23;20023;-70
2021/09/29 05:45:44;;;;;;;28.52;18.92;;;;;;;;;;6230356;23;20008;-70
2021/09/29 05:48:10;;;;;;;25.98;19.38;;;;;;;;;;6232219;23;20035;-71
2021/09/29 05:50:37;;;;;;;26.30;18.88;;;;;;;;;;6231822;23;20008;-70
2021/09/29 05:53:03;;;;;;;24.15;18.80;;;;;;;;;;6231401;23;20008;-74
2021/09/29 05:55:30;;;;;;;25.65;19.85;;;;;;;;;;6231716;22;20087;-71
2021/09/29 05:57:56;;;;;;;22.05;18.48;;;;;;;;;;6230205;23;20043;-72
2021/09/29 06:00:22;;;;;;;24.30;18.45;;;;;;;;;;6231936;23;20488;-73
2021/09/29 06:02:48;;;;;;;25.30;19.20;;;;;;;;;;6232058;23;20016;-72
2021/09/29 06:05:17;;;;;;;22.73;18.35;;;;;;;;;;6205379;23;20032;-71
2021/09/29 06:07:43;;;;;;;25.10;18.20;;;;;;;;;;6232534;23;20010;-71
2021/09/29 06:10:10;;;;;;;28.08;19.35;;;;;;;;;;6231817;23;20027;-72
2021/09/29 06:12:36;;;;;;;24.25;18.38;;;;;;;;;;6234116;23;20460;-71
2021/09/29 06:15:03;;;;;;;32.03;19.70;;;;;;;;;;6233901;23;20062;-71
2021/09/29 06:17:41;;;;;;;25.35;18.08;;;;;;;;;;6234120;23;20075;-71
2021/09/29 06:20:08;;;;;;;24.38;18.40;;;;;;;;;;6233734;23;20058;-72
2021/09/29 06:22:34;;;;;;;25.35;18.70;;;;;;;;;;6231791;23;20305;-71
2021/09/29 06:25:01;;;;;;;25.80;19.35;;;;;;;;;;6233930;23;20023;-72
2021/09/29 06:27:27;;;;;;;27.13;19.33;;;;;;;;;;6233738;23;20007;-72
2021/09/29 06:29:53;;;;;;;27.05;18.85;;;;;;;;;;6233898;23;20510;-72
2021/09/29 06:32:20;;;;;;;24.75;19.23;;;;;;;;;;6231766;23;20445;-71
2021/09/29 06:34:46;;;;;;;27.67;18.50;;;;;;;;;;6232804;23;20004;-72
2021/09/29 06:37:12;;;;;;;30.17;19.83;;;;;;;;;;6233494;23;20029;-71
2021/09/29 06:39:38;;;;;;;22.23;16.98;;;;;;;;;;6233638;23;20018;-72
2021/09/29 06:42:04;;;;;;;30.63;20.08;;;;;;;;;;6233095;23;20000;-71
2021/09/29 06:44:31;;;;;;;23.40;18.90;;;;;;;;;;6231502;23;20008;-74
2021/09/29 06:46:57;;;;;;;21.25;17.48;;;;;;;;;;6232831;23;20061;-75
2021/09/29 06:49:23;;;;;;;25.10;17.92;;;;;;;;;;6233032;23;20008;-71
2021/09/29 06:51:49;;;;;;;23.42;19.15;;;;;;;;;;6232029;23;20004;-71
2021/09/29 06:54:16;;;;;;;19.00;16.88;;;;;;;;;;6231626;23;20548;-71
2021/09/29 06:56:42;;;;;;;20.38;17.60;;;;;;;;;;6233122;22;20007;-72
2021/09/29 06:59:08;;;;;;;21.90;17.63;;;;;;;;;;6233635;23;20011;-71
2021/09/29 07:01:34;;;;;;;18.85;15.77;;;;;;;;;;6231012;23;20032;-71
2021/09/29 07:04:00;;;;;;;25.83;16.77;;;;;;;;;;6233398;23;20071;-72
2021/09/29 07:06:28;;;;;;;22.65;17.80;;;;;;;;;;6232861;23;20079;-72
2021/09/29 07:08:55;;;;;;;21.27;15.38;;;;;;;;;;6233105;23;20417;-71
2021/09/29 07:11:21;;;;;;;19.25;16.15;;;;;;;;;;6232778;23;20027;-72
2021/09/29 07:13:47;;;;;;;18.45;16.45;;;;;;;;;;6231235;23;20062;-72
2021/09/29 07:16:14;;;;;;;20.38;16.50;;;;;;;;;;6233220;23;20008;-71
2021/09/29 07:18:41;;;;;;;20.73;17.50;;;;;;;;;;6233385;23;20000;-71
2021/09/29 07:21:07;;;;;;;19.70;16.48;;;;;;;;;;6232748;23;20000;-71
2021/09/29 07:23:33;;;;;;;19.58;16.70;;;;;;;;;;6232752;23;20016;-72
2021/09/29 07:26:00;;;;;;;20.77;15.32;;;;;;;;;;6233266;23;20440;-72
2021/09/29 07:28:26;;;;;;;20.88;16.92;;;;;;;;;;6229352;23;20032;-78
2021/09/29 07:30:52;;;;;;;18.77;15.88;;;;;;;;;;6229816;23;20000;-73
2021/09/29 07:33:18;;;;;;;18.73;15.68;;;;;;;;;;6231555;23;20019;-72
2021/09/29 07:35:45;;;;;;;26.95;15.93;;;;;;;;;;6232473;23;20455;-71
2021/09/29 07:38:11;;;;;;;21.20;17.13;;;;;;;;;;6231274;23;20001;-72
2021/09/29 07:40:38;;;;;;;19.95;16.60;;;;;;;;;;6232065;23;20008;-72
2021/09/29 07:43:04;;;;;;;25.23;17.30;;;;;;;;;;6232653;23;20019;-72
2021/09/29 07:45:31;;;;;;;18.48;16.33;;;;;;;;;;6232350;23;20108;-73
2021/09/29 07:47:57;;;;;;;20.98;17.45;;;;;;;;;;6232565;23;20528;-73
2021/09/29 07:50:23;;;;;;;21.88;17.10;;;;;;;;;;6232414;23;20134;-73
2021/09/29 07:52:50;;;;;;;23.27;17.35;;;;;;;;;;6230784;23;20007;-72
2021/09/29 07:55:17;;;;;;;19.13;17.05;;;;;;;;;;6232389;22;20008;-73
2021/09/29 07:57:44;;;;;;;20.33;16.60;;;;;;;;;;6232831;23;19996;-72
2021/09/29 08:00:11;;;;;;;25.42;16.60;;;;;;;;;;6232488;23;20691;-72
2021/09/29 08:02:37;;;;;;;18.38;16.55;;;;;;;;;;6230423;23;20069;-72
2021/09/29 08:05:04;;;;;;;19.67;15.73;;;;;;;;;;6232063;23;20012;-73
2021/09/29 08:07:31;;;;;;;275.42;34.95;;;;;;;;;;6232625;23;19996;-73
2021/09/29 08:09:57;;;;;;;20.42;16.27;;;;;;;;;;6232611;23;20344;-72
2021/09/29 08:12:23;;;;;;;18.75;16.05;;;;;;;;;;6231536;23;20696;-76
2021/09/29 08:14:50;;;;;;;19.10;15.80;;;;;;;;;;6230831;23;20004;-72
2021/09/29 08:17:16;;;;;;;17.42;15.15;;;;;;;;;;6232429;23;20621;-72
2021/09/29 08:19:42;;;;;;;27.40;17.15;;;;;;;;;;6232438;23;20003;-72
2021/09/29 08:22:10;;;;;;;19.08;16.48;;;;;;;;;;6231436;23;20396;-72
2021/09/29 08:30:05;;;;;;;22.83;17.15;;;;;;;;;;6241728;23;20077;-73
2021/09/29 08:32:41;;;;;;;20.90;16.42;;;;;;;;;;6231348;23;20073;-72
2021/09/29 08:38:07;;;;;;;18.65;16.58;;;;;;;;;;6242678;23;20012;-72
2021/09/29 08:40:51;;;;;;;21.33;16.77;;;;;;;;;;6230344;23;20001;-74
2021/09/29 08:43:43;;;;;;;19.55;15.75;;;;;;;;;;6231481;23;20019;-74
2021/09/29 08:49:02;;;;;;;20.45;16.23;;;;;;;;;;6231773;23;20058;-76
2021/09/29 09:16:33;;;;;;;20.00;16.38;;;;;;;;;;6231818;23;20083;-75
2021/09/29 09:19:03;;;;;;;21.13;16.40;;;;;;;;;;6231536;23;20008;-79
2021/09/29 09:21:29;;;;;;;19.48;16.50;;;;;;;;;;6231454;23;20004;-74
2021/09/29 09:23:58;;;;;;;23.10;16.77;;;;;;;;;;6204614;23;20012;-74
2021/09/29 09:26:25;;;;;;;20.27;16.35;;;;;;;;;;6229803;23;20133;-73
2021/09/29 09:29:03;;;;;;;19.30;16.80;;;;;;;;;;6232291;23;20075;-74
2021/09/29 09:31:30;;;;;;;16.20;14.38;;;;;;;;;;6231853;23;20558;-76
2021/09/29 09:33:59;;;;;;;17.00;15.20;;;;;;;;;;6230803;23;20451;-74
2021/09/29 09:36:34;;;;;;;17.63;13.93;;;;;;;;;;6229684;23;20000;-79
2021/09/29 09:39:03;;;;;;;21.42;14.20;;;;;;;;;;6231703;23;20005;-74
2021/09/29 09:41:29;;;;;;;21.38;14.55;;;;;;;;;;6231515;23;20448;-75
2021/09/29 09:44:02;;;;;;;20.42;15.63;;;;;;;;;;6229777;23;20436;-80
2021/09/29 09:46:29;;;;;;;18.30;14.85;;;;;;;;;;6234055;23;20011;-75
2021/09/29 09:49:03;;;;;;;19.83;14.95;;;;;;;;;;6233251;23;20083;-75
2021/09/29 09:51:30;;;;;;;17.55;14.25;;;;;;;;;;6206523;23;20031;-74
2021/09/29 09:53:57;;;;;;;16.65;14.88;;;;;;;;;;6231780;23;19996;-75
2021/09/29 09:56:26;;;;;;;18.38;15.25;;;;;;;;;;6233649;22;20010;-75
2021/09/29 09:58:56;;;;;;;21.67;15.18;;;;;;;;;;6233329;23;20000;-75
2021/09/29 10:01:23;;;;;;;16.40;14.65;;;;;;;;;;6233521;23;20027;-75
2021/09/29 10:03:51;;;;;;;19.08;14.50;;;;;;;;;;6233199;23;20019;-75
2021/09/29 10:06:19;;;;;;;15.32;13.73;;;;;;;;;;6233642;23;20032;-75
2021/09/29 10:08:59;;;;;;;19.98;16.10;;;;;;;;;;6231897;23;20704;-75
2021/09/29 10:11:37;;;;;;;16.17;14.40;;;;;;;;;;6233650;23;20058;-75
2021/09/29 10:27:44;;;;;;;15.50;13.93;;;;;;;;;;6233339;23;20109;-77
2021/09/29 10:30:13;;;;;;;17.15;13.30;;;;;;;;;;6206805;23;20189;-75
2021/09/29 10:32:48;;;;;;;17.27;15.48;;;;;;;;;;6231337;23;20079;-74
2021/09/29 10:37:54;;;;;;;21.85;14.05;;;;;;;;;;6243271;23;20015;-74
2021/09/29 10:40:34;;;;;;;17.00;13.93;;;;;;;;;;6231165;23;19997;-75
2021/09/29 10:43:03;;;;;;;18.15;14.10;;;;;;;;;;6233669;23;20004;-75
2021/09/29 10:45:42;;;;;;;16.63;13.18;;;;;;;;;;6233508;23;20449;-76
2021/09/29 10:49:05;;;;;;;16.65;14.20;;;;;;;;;;6232839;23;20440;-76
2021/09/29 11:30:33;;;;;;;14.25;12.48;;;;;;;;;;6225058;23;20456;-74
2021/09/29 11:33:10;;;;;;;17.80;14.27;;;;;;;;;;6230287;23;20043;-74
2021/09/29 12:14:02;;;;;;;15.70;13.00;;;;;;;;;;6228413;23;20062;-80
2021/09/29 12:16:30;;;;;;;13.80;12.32;;;;;;;;;;6227319;23;20445;-74
2021/09/29 12:19:04;;;;;;;16.08;13.15;;;;;;;;;;6228926;23;20051;-75
2021/09/29 12:21:39;;;;;;;15.00;13.38;;;;;;;;;;6229809;23;20012;-77
2021/09/29 12:24:08;;;;;;;14.68;12.68;;;;;;;;;;6229403;23;20020;-74
2021/09/29 12:26:41;;;;;;;15.48;12.60;;;;;;;;;;6228197;23;20000;-82
2021/09/29 12:30:06;;;;;;;14.10;12.60;;;;;;;;;;6229287;23;20004;-76
2021/09/29 12:35:18;;;;;;;18.80;12.95;;;;;;;;;;6239725;23;20012;-76
2021/09/29 12:37:55;;;;;;;16.27;12.70;;;;;;;;;;6227129;23;20000;-83
2021/09/29 12:40:21;;;;;;;16.58;13.55;;;;;;;;;;6228976;23;20255;-76
2021/09/29 12:42:55;;;;;;;17.27;14.18;;;;;;;;;;6229120;23;20008;-79
2021/09/29 12:45:25;;;;;;;17.40;13.38;;;;;;;;;;6227979;23;19996;-81
2021/09/29 12:47:51;;;;;;;15.63;13.68;;;;;;;;;;6229150;23;20882;-85
2021/09/29 12:50:22;;;;;;;17.27;13.20;;;;;;;;;;6229965;23;20000;-79
2021/09/29 12:52:58;;;;;;;15.07;13.27;;;;;;;;;;6227555;23;19996;-75
2021/09/29 12:55:33;;;;;;;16.13;13.20;;;;;;;;;;6229992;22;20004;-79
2021/09/29 12:57:59;;;;;;;14.38;12.75;;;;;;;;;;6230473;23;20010;-73
2021/09/29 13:00:25;;;;;;;18.52;12.93;;;;;;;;;;6230305;23;20016;-76
2021/09/29 13:02:51;;;;;;;23.08;13.90;;;;;;;;;;6229290;23;20474;-76
2021/09/29 13:05:17;;;;;;;16.08;13.77;;;;;;;;;;6229253;23;20004;-74
2021/09/29 13:07:45;;;;;;;17.70;13.95;;;;;;;;;;6227794;23;20071;-75
2021/09/29 13:10:11;;;;;;;14.40;13.00;;;;;;;;;;6228976;23;20050;-75
2021/09/29 13:12:37;;;;;;;17.92;13.30;;;;;;;;;;6229684;23;20390;-75
2021/09/29 13:15:04;;;;;;;15.30;13.05;;;;;;;;;;6226965;23;20491;-75
2021/09/29 13:17:30;;;;;;;15.48;12.23;;;;;;;;;;6226985;23;20006;-77
2021/09/29 13:20:00;;;;;;;14.15;12.45;;;;;;;;;;6229002;23;20004;-78
2021/09/29 13:22:27;;;;;;;14.52;12.30;;;;;;;;;;6229175;23;20010;-75
2021/09/29 13:25:04;;;;;;;16.00;12.57;;;;;;;;;;6229028;23;20075;-74
2021/09/29 13:36:33;;;;;;;13.57;11.50;;;;;;;;;;6228991;23;20020;-74
2021/09/29 13:38:15;;;;;;;14.23;12.73;;;;;;;;;;6228371;23;20027;-75
2021/09/29 13:40:43;;;;;;;16.75;13.50;;;;;;;;;;6228649;23;20310;-80
2021/09/29 13:43:10;;;;;;;16.95;13.38;;;;;;;;;;6199794;23;20385;-75
2021/09/29 13:45:37;;;;;;;13.57;12.15;;;;;;;;;;6228445;23;20004;-77
2021/09/29 13:48:03;;;;;;;14.00;12.13;;;;;;;;;;6228858;23;20456;-74
2021/09/29 13:50:30;;;;;;;15.75;12.60;;;;;;;;;;6229669;23;20015;-76
2021/09/29 13:52:58;;;;;;;14.63;13.13;;;;;;;;;;6228332;23;20003;-75
2021/09/29 13:55:26;;;;;;;18.35;13.80;;;;;;;;;;6226612;22;20536;-78
2021/09/29 14:03:33;;;;;;;17.00;13.40;;;;;;;;;;6228814;23;20602;-80
2021/09/29 14:14:52;;;;;;;16.00;13.25;;;;;;;;;;6227320;23;20097;-80
2021/09/29 14:31:08;;;;;;;16.75;13.07;;;;;;;;;;6230191;23;20546;-80
2021/09/29 14:33:44;;;;;;;18.33;13.13;;;;;;;;;;6229634;23;20047;-78
2021/09/29 14:36:11;;;;;;;20.20;12.82;;;;;;;;;;6230644;23;20452;-75
2021/09/29 14:38:37;;;;;;;19.20;13.48;;;;;;;;;;6229794;23;20074;-81
2021/09/29 14:41:03;;;;;;;15.20;13.30;;;;;;;;;;6229568;23;20047;-75
2021/09/29 14:43:30;;;;;;;14.77;12.90;;;;;;;;;;6203658;23;20012;-75
2021/09/29 14:45:56;;;;;;;17.30;13.52;;;;;;;;;;6230570;23;20020;-76
2021/09/29 14:48:22;;;;;;;14.50;12.75;;;;;;;;;;6230705;23;20439;-75
2021/09/29 14:50:50;;;;;;;14.32;12.50;;;;;;;;;;6229361;23;20487;-74
2021/09/29 14:53:17;;;;;;;18.10;13.50;;;;;;;;;;6230248;23;19996;-77
2021/09/29 14:55:43;;;;;;;16.50;13.30;;;;;;;;;;6230760;22;20035;-77
2021/09/29 14:58:09;;;;;;;18.85;13.80;;;;;;;;;;6230501;23;20924;-77
2021/09/29 15:00:35;;;;;;;19.42;14.13;;;;;;;;;;6231575;23;20019;-82
2021/09/29 15:03:01;;;;;;;20.25;14.27;;;;;;;;;;6205031;23;20008;-84
2021/09/29 15:05:28;;;;;;;16.67;13.63;;;;;;;;;;6232118;23;20016;-83
2021/09/29 15:07:54;;;;;;;19.30;12.48;;;;;;;;;;6231805;23;20000;-87
2021/09/29 15:10:21;;;;;;;14.70;12.95;;;;;;;;;;6232205;23;20445;-75
2021/09/29 15:12:47;;;;;;;13.93;11.45;;;;;;;;;;6230467;23;20008;-80
2021/09/29 15:15:19;;;;;;;18.95;12.90;;;;;;;;;;6229742;23;20004;-78
2021/09/29 15:17:54;;;;;;;15.43;13.10;;;;;;;;;;6231117;23;20011;-74
2021/09/29 15:20:50;;;;;;;15.30;12.90;;;;;;;;;;6231328;23;20381;-83
2021/09/29 15:48:04;;;;;;;15.10;12.98;;;;;;;;;;6229836;23;20356;-79
2021/09/29 15:55:30;;;;;;;15.27;12.98;;;;;;;;;;6237639;22;20026;-75
2021/09/29 16:00:44;;;;;;;16.98;12.88;;;;;;;;;;6242665;23;20008;-76
2021/09/29 16:08:34;;;;;;;17.08;13.52;;;;;;;;;;6230595;23;20012;-77
2021/09/29 16:16:28;;;;;;;21.02;13.98;;;;;;;;;;6233213;23;20096;-76
2021/09/29 16:32:27;;;;;;;17.70;14.10;;;;;;;;;;6230865;23;20518;-74
2021/09/29 16:35:00;;;;;;;16.50;13.40;;;;;;;;;;6232241;23;20008;-79
2021/09/29 16:37:28;;;;;;;16.45;13.57;;;;;;;;;;6229617;23;20011;-84
2021/09/29 16:39:54;;;;;;;17.85;14.00;;;;;;;;;;6229741;23;20082;-78
2021/09/29 16:42:20;;;;;;;16.02;12.75;;;;;;;;;;6229563;23;20008;-83
2021/09/29 16:44:46;;;;;;;18.05;13.18;;;;;;;;;;6229967;23;20463;-78
2021/09/29 16:47:13;;;;;;;17.70;14.65;;;;;;;;;;6229931;23;20011;-83
2021/09/29 16:49:40;;;;;;;18.90;14.35;;;;;;;;;;6223723;23;20735;-78
2021/09/29 16:54:33;;;;;;;18.63;14.18;;;;;;;;;;6237391;22;20496;-75
2021/09/29 16:56:59;;;;;;;18.05;15.25;;;;;;;;;;6201615;23;20008;-81
2021/09/29 16:59:42;;;;;;;334.33;238.30;;;;;;;;;;6227551;23;20008;-81
2021/09/29 17:02:11;;;;;;;355.67;287.00;;;;;;;;;;6225445;23;19996;-77
2021/09/29 17:04:37;;;;;;;497.60;320.08;;;;;;;;;;6227316;23;20123;-78
2021/09/29 17:07:03;;;;;;;131.52;100.55;;;;;;;;;;6227773;23;20066;-78
2021/09/29 17:09:31;;;;;;;130.95;112.32;;;;;;;;;;6228257;23;20555;-83
2021/09/29 17:11:57;;;;;;;58.63;52.08;;;;;;;;;;6228290;23;20005;-78
2021/09/29 17:14:23;;;;;;;113.90;102.05;;;;;;;;;;6227293;23;19996;-77
2021/09/29 17:16:50;;;;;;;286.42;241.48;;;;;;;;;;6200317;23;20743;-78
2021/09/29 17:19:16;;;;;;;249.65;202.93;;;;;;;;;;6227386;23;20011;-76
2021/09/29 17:21:42;;;;;;;311.50;232.65;;;;;;;;;;6231059;23;20000;-78
2021/09/29 17:24:09;;;;;;;177.15;143.35;;;;;;;;;;6231252;23;20099;-77
2021/09/29 17:26:35;;;;;;;65.10;55.42;;;;;;;;;;6229956;23;20000;-75
2021/09/29 17:29:02;;;;;;;32.00;25.83;;;;;;;;;;6203038;23;20067;-75
2021/09/29 17:31:44;;;;;;;136.32;110.72;;;;;;;;;;6231199;23;20004;-80
2021/09/29 17:36:56;;;;;;;52.78;47.13;;;;;;;;;;6230910;23;19938;-74
2021/09/29 17:53:03;;;;;;;32.10;26.60;;;;;;;;;;6231011;23;20066;-75
2021/09/29 17:55:30;;;;;;;26.80;21.75;;;;;;;;;;6229507;22;20015;-84
2021/09/29 17:57:57;;;;;;;27.02;24.13;;;;;;;;;;6202721;23;20308;-76
2021/09/29 18:00:23;;;;;;;24.23;20.92;;;;;;;;;;6229924;23;20007;-81
2021/09/29 18:06:12;;;;;;;31.70;28.48;;;;;;;;;;6230969;23;20020;-75
2021/09/29 18:08:04;;;;;;;28.90;23.23;;;;;;;;;;6208690;23;20515;-86
2021/09/29 18:10:31;;;;;;;25.23;18.75;;;;;;;;;;6232126;23;19999;-75
2021/09/29 18:12:58;;;;;;;27.08;18.02;;;;;;;;;;6232353;23;20492;-74
2021/09/29 18:15:25;;;;;;;19.48;16.00;;;;;;;;;;6232666;23;20621;-77
2021/09/29 18:17:51;;;;;;;59.05;53.00;;;;;;;;;;6232041;23;20460;-75
2021/09/29 18:20:17;;;;;;;111.78;100.93;;;;;;;;;;6233217;23;20027;-78
2021/09/29 18:22:45;;;;;;;46.10;41.53;;;;;;;;;;6231279;23;20008;-76
2021/09/29 18:25:12;;;;;;;37.05;33.08;;;;;;;;;;6232911;23;20008;-75
2021/09/29 18:27:39;;;;;;;63.05;56.95;;;;;;;;;;6232163;23;20004;-80